Time;durP1;ratioP1;P1;durP2;ratioP2;P2;SDS_P1;SDS_P2;PMS_P1;PMS_P2;Temp;Humidity;BMP_temperature;BMP_pressure;BME280_temperature;BME280_humidity;BME280_pressure;Samples;Min_cycle;Max_cycle;Signal;HPM_P1;HPM_P2
2023/07/24 00:02:13;;;;;;;0.57;0.20;;;21.90;99.90;;;22.10;55.25;100200.91;4886606;28;102798;-44
2023/07/24 00:04:39;;;;;;;2.23;1.03;;;22.00;99.90;;;22.16;67.69;100200.38;4888206;28;96836;-42
2023/07/24 00:07:05;;;;;;;0.60;0.40;;;22.00;99.90;;;22.11;56.22;100194.56;4887146;28;100084;-44
2023/07/24 00:09:32;;;;;;;1.60;0.87;;;22.00;99.90;;;22.14;60.52;100196.16;4885750;28;98729;-42
2023/07/24 00:11:57;;;;;;;1.47;0.87;;;22.00;99.90;;;22.16;61.07;100194.16;4885995;28;98526;-42
2023/07/24 00:14:23;;;;;;;1.33;0.70;;;22.00;99.90;;;22.18;67.03;100195.72;4880446;28;98813;-44
2023/07/24 00:16:50;;;;;;;1.17;0.73;;;22.00;99.90;;;22.14;55.50;100186.25;4887751;28;107272;-44
2023/07/24 00:19:16;;;;;;;1.80;0.60;;;22.00;99.90;;;22.13;54.89;100189.94;4878924;28;99677;-42
2023/07/24 00:21:41;;;;;;;0.60;0.47;;;22.00;99.90;;;22.16;55.33;100184.25;4880985;28;100027;-43
2023/07/24 00:24:07;;;;;;;4.77;1.00;;;22.00;99.90;;;22.20;60.25;100185.69;4886460;28;99550;-42
2023/07/24 00:26:33;;;;;;;1.20;0.70;;;22.10;99.90;;;22.19;54.54;100183.97;4884972;28;124745;-43
2023/07/24 00:29:00;;;;;;;0.43;0.37;;;22.10;99.90;;;22.21;54.48;100190.06;4887760;28;99079;-43
2023/07/24 00:31:26;;;;;;;0.87;0.63;;;22.10;99.90;;;22.20;54.25;100180.31;4886946;28;98027;-43
2023/07/24 00:33:51;;;;;;;0.90;0.60;;;22.10;99.90;;;22.24;55.44;100181.72;4887966;28;97328;-44
2023/07/24 00:36:17;;;;;;;1.57;0.87;;;22.10;99.90;;;22.24;54.90;100192.44;4885500;28;103978;-42
2023/07/24 00:38:43;;;;;;;1.53;0.50;;;22.10;99.90;;;22.23;54.18;100185.38;4884024;28;98617;-46
2023/07/24 00:41:09;;;;;;;0.40;0.30;;;22.10;99.90;;;22.23;54.03;100179.16;4886866;28;116110;-42
2023/07/24 00:43:35;;;;;;;0.87;0.50;;;22.10;99.90;;;22.24;53.99;100183.56;4883937;28;98731;-45
2023/07/24 00:46:02;;;;;;;0.90;0.30;;;22.20;99.90;;;22.22;53.90;100178.31;4882677;28;97846;-42
2023/07/24 00:48:28;;;;;;;0.30;0.30;;;22.20;99.90;;;22.22;54.03;100172.94;4888166;28;97036;-44
2023/07/24 00:50:54;;;;;;;0.80;0.40;;;22.20;99.90;;;22.24;53.83;100170.13;4893552;28;97374;-42
2023/07/24 00:53:20;;;;;;;0.43;0.40;;;22.20;99.90;;;22.24;53.96;100173.66;4893506;28;97459;-42
2023/07/24 00:55:47;;;;;;;0.83;0.43;;;22.20;99.90;;;22.23;54.05;100163.06;4894153;28;104749;-43
2023/07/24 00:58:12;;;;;;;0.60;0.37;;;22.20;99.90;;;22.24;53.96;100160.22;4899768;28;101104;-44
2023/07/24 01:00:41;;;;;;;0.80;0.43;;;22.20;99.90;;;22.25;53.84;100153.00;4885893;28;97372;-43
2023/07/24 01:03:07;;;;;;;0.47;0.40;;;22.20;99.90;;;22.26;53.87;100152.88;4904222;28;118181;-42
2023/07/24 01:05:32;;;;;;;0.30;0.30;;;22.20;99.90;;;22.21;54.12;100157.81;4906766;28;105291;-43
2023/07/24 01:07:58;;;;;;;0.53;0.50;;;22.20;99.90;;;22.19;54.18;100157.13;4898136;28;103391;-42
2023/07/24 01:10:24;;;;;;;1.13;0.63;;;22.20;99.90;;;22.19;54.24;100156.28;4896061;28;97196;-45
2023/07/24 01:13:10;;;;;;;0.70;0.47;;;22.20;99.90;;;22.18;54.34;100141.16;4892051;28;97329;-43
2023/07/24 01:15:45;;;;;;;1.33;0.50;;;22.20;99.90;;;22.18;54.34;100136.63;4880144;28;101758;-42
2023/07/24 01:18:13;;;;;;;1.73;0.63;;;22.20;99.90;;;22.15;54.63;100128.84;4909162;28;97149;-42
2023/07/24 01:20:53;;;;;;;0.80;0.60;;;22.20;99.90;;;22.13;54.61;100120.09;4896270;28;115180;-46
2023/07/24 01:23:30;;;;;;;1.07;0.53;;;22.20;99.90;;;22.13;54.65;100112.03;4898765;28;97364;-43
2023/07/24 01:25:58;;;;;;;0.63;0.60;;;22.10;99.90;;;22.15;54.61;100123.47;4892277;28;98243;-42
2023/07/24 01:28:25;;;;;;;0.67;0.57;;;22.20;99.90;;;22.19;56.72;100114.16;4892727;28;97382;-44
2023/07/24 01:30:52;;;;;;;0.40;0.40;;;22.20;99.90;;;22.21;54.32;100098.72;4892373;28;97444;-42
2023/07/24 01:33:18;;;;;;;0.77;0.40;;;22.20;99.90;;;22.19;54.71;100098.03;4892770;28;106708;-42
2023/07/24 01:35:44;;;;;;;0.93;0.53;;;22.20;99.90;;;22.21;54.51;100098.72;4917150;28;97110;-42
2023/07/24 01:38:13;;;;;;;1.03;0.70;;;22.20;99.90;;;22.20;54.46;100105.09;4894083;28;117663;-48
2023/07/24 01:40:42;;;;;;;0.87;0.50;;;22.20;99.90;;;22.22;54.47;100092.38;4902867;28;97498;-45
2023/07/24 01:43:09;;;;;;;1.10;0.47;;;22.20;99.90;;;22.25;54.59;100094.75;4888627;28;122063;-43
2023/07/24 01:45:38;;;;;;;0.50;0.50;;;22.20;99.90;;;22.22;54.17;100095.06;4899195;28;97206;-42
2023/07/24 01:48:05;;;;;;;0.50;0.30;;;22.20;99.90;;;22.19;54.55;100089.97;4895376;28;97823;-46
2023/07/24 01:50:31;;;;;;;1.07;0.67;;;22.20;99.90;;;22.17;54.93;100089.28;4898624;28;97522;-44
2023/07/24 01:52:57;;;;;;;1.77;0.80;;;22.20;99.90;;;22.19;54.85;100089.13;4915295;28;97186;-44
2023/07/24 01:55:23;;;;;;;1.27;0.70;;;22.20;99.90;;;22.17;54.89;100086.59;4900041;28;97353;-42
2023/07/24 01:57:49;;;;;;;1.80;0.90;;;22.20;99.90;;;22.17;54.84;100083.06;4900334;28;99078;-43
2023/07/24 02:00:15;;;;;;;0.60;0.60;;;22.20;99.90;;;22.17;54.92;100057.03;4885733;28;102790;-44
2023/07/24 02:02:40;;;;;;;1.17;0.70;;;22.20;99.90;;;22.19;54.71;100060.44;4901809;28;97523;-43
2023/07/24 02:05:06;;;;;;;1.83;0.70;;;22.20;99.90;;;22.20;54.71;100067.50;4900026;28;108335;-43
2023/07/24 02:07:32;;;;;;;2.07;0.83;;;22.20;99.90;;;22.24;55.00;100079.63;4892660;28;97438;-44
2023/07/24 02:09:58;;;;;;;1.40;1.00;;;22.20;99.90;;;22.29;59.88;100076.53;4903276;28;97192;-43
2023/07/24 02:12:24;;;;;;;2.37;1.00;;;22.20;99.90;;;22.27;55.21;100079.34;4893796;28;97867;-45
2023/07/24 02:14:51;;;;;;;1.47;1.00;;;22.20;99.90;;;22.27;56.07;100073.13;4894112;28;97557;-42
2023/07/24 02:17:18;;;;;;;0.80;0.80;;;22.20;99.90;;;22.23;55.67;100067.19;4889232;28;97321;-47
2023/07/24 02:19:44;;;;;;;0.87;0.70;;;22.20;99.90;;;22.20;54.80;100067.50;4917125;28;97462;-44
2023/07/24 02:22:10;;;;;;;0.87;0.70;;;22.20;99.90;;;22.24;55.62;100068.88;4887652;28;98121;-44
2023/07/24 02:24:36;;;;;;;1.30;0.83;;;22.20;99.90;;;22.21;54.90;100047.69;4915554;28;97579;-43
2023/07/24 02:27:02;;;;;;;1.27;0.70;;;22.20;99.90;;;22.19;54.85;100052.38;4885712;28;105199;-45
2023/07/24 02:29:27;;;;;;;1.47;0.87;;;22.20;99.90;;;22.17;54.86;100046.28;4906828;28;97375;-43
2023/07/24 02:31:54;;;;;;;0.90;0.67;;;22.10;99.90;;;22.18;54.65;100041.78;4902442;28;124938;-45
2023/07/24 02:34:26;;;;;;;1.20;0.70;;;22.10;99.90;;;22.22;54.69;100038.66;4893429;28;107474;-42
2023/07/24 02:36:53;;;;;;;1.10;0.70;;;22.20;99.90;;;22.22;54.89;100038.66;4894091;28;97384;-43
2023/07/24 02:39:19;;;;;;;1.20;0.80;;;22.20;99.90;;;22.24;54.73;100039.34;4917913;28;98354;-43
2023/07/24 02:41:47;;;;;;;1.37;1.07;;;22.20;99.90;;;22.26;58.30;100042.72;4893092;28;97059;-42
2023/07/24 02:44:12;;;;;;;1.33;0.80;;;22.20;99.90;;;22.26;55.13;100045.41;4893405;28;97724;-43
2023/07/24 02:46:38;;;;;;;1.13;1.00;;;22.20;99.90;;;22.24;61.23;100044.72;4888699;28;97278;-48
2023/07/24 02:49:04;;;;;;;1.73;1.10;;;22.20;99.90;;;22.22;55.85;100043.16;4902151;28;106899;-43
2023/07/24 02:51:30;;;;;;;1.70;1.07;;;22.10;99.90;;;22.21;60.80;100042.31;4896567;28;98923;-44
2023/07/24 02:53:56;;;;;;;1.37;0.70;;;22.10;99.90;;;22.20;57.33;100048.69;4891817;28;106463;-43
2023/07/24 02:56:22;;;;;;;1.47;0.80;;;22.10;99.90;;;22.15;55.78;100037.53;4886319;28;97069;-44
2023/07/24 02:58:48;;;;;;;0.97;0.83;;;22.00;99.90;;;22.10;55.16;100034.41;4886379;28;99471;-45
2023/07/24 03:01:14;;;;;;;0.83;0.67;;;22.00;99.90;;;22.12;54.95;100019.00;4888499;28;98842;-42
2023/07/24 03:03:41;;;;;;;1.30;0.73;;;22.00;99.90;;;22.09;55.08;100005.88;4893709;28;97185;-42
2023/07/24 03:06:07;;;;;;;1.03;0.60;;;22.10;99.90;;;22.10;55.05;100012.09;4898738;28;97092;-45
2023/07/24 03:08:33;;;;;;;1.90;1.30;;;22.10;99.90;;;22.14;57.25;100022.41;4899265;28;97531;-45
2023/07/24 03:11:02;;;;;;;1.37;0.70;;;22.10;99.90;;;22.17;55.10;100013.22;4889231;28;97528;-42
2023/07/24 03:13:27;;;;;;;1.67;0.90;;;22.10;99.90;;;22.20;54.92;100016.47;4910295;28;97300;-44
2023/07/24 03:15:57;;;;;;;0.90;0.50;;;22.10;99.90;;;22.23;54.64;100018.00;4890647;28;97238;-42
2023/07/24 03:18:24;;;;;;;4.97;1.20;;;22.10;99.90;;;22.25;59.16;100008.81;4896420;28;96866;-45
2023/07/24 03:20:49;;;;;;;2.23;1.50;;;22.10;99.90;;;22.25;62.24;100006.13;4890969;28;97451;-44
2023/07/24 03:23:15;;;;;;;2.20;1.13;;;22.10;99.90;;;22.25;58.85;100011.50;4903448;28;98164;-44
2023/07/24 03:25:41;;;;;;;4.23;1.10;;;22.10;99.90;;;22.20;54.96;99992.28;4891945;28;97063;-42
2023/07/24 03:28:07;;;;;;;1.63;0.70;;;22.10;99.90;;;22.22;57.12;99992.97;4876725;28;97263;-42
2023/07/24 03:30:33;;;;;;;1.33;0.70;;;22.10;99.90;;;22.21;54.84;99995.81;4895606;28;111564;-43
2023/07/24 03:32:58;;;;;;;1.43;1.30;;;22.10;99.90;;;22.22;58.94;99995.66;4893810;28;97240;-42
2023/07/24 03:35:24;;;;;;;2.97;1.47;;;22.10;99.90;;;22.22;58.44;99995.66;4892776;28;97454;-42
2023/07/24 03:37:50;;;;;;;1.27;1.00;;;22.10;99.90;;;22.21;58.21;99993.97;4891487;28;104160;-43
2023/07/24 03:40:16;;;;;;;2.23;0.90;;;22.10;99.90;;;22.21;59.43;99993.97;4896780;28;109103;-42
2023/07/24 03:42:41;;;;;;;1.67;0.90;;;22.10;99.90;;;22.17;55.51;99987.22;4890627;28;98202;-43
2023/07/24 03:45:08;;;;;;;2.07;1.30;;;22.00;99.90;;;22.18;61.82;99991.59;4903480;28;97478;-43
2023/07/24 03:47:34;;;;;;;1.63;1.23;;;22.00;99.90;;;22.15;56.35;99986.50;4895502;28;97148;-42
2023/07/24 03:50:00;;;;;;;2.50;1.10;;;22.00;99.90;;;22.16;56.73;99981.97;4881289;28;104741;-45
2023/07/24 03:52:26;;;;;;;2.30;1.20;;;22.00;99.90;;;22.16;58.58;99982.84;4894156;28;105822;-44
2023/07/24 03:54:52;;;;;;;1.60;0.97;;;22.00;99.90;;;22.16;61.13;99984.66;4900952;28;97194;-42
2023/07/24 03:57:18;;;;;;;2.57;1.50;;;22.00;99.90;;;22.15;61.89;99994.56;4885638;28;97218;-43
2023/07/24 03:59:44;;;;;;;1.03;0.77;;;22.00;99.90;;;22.11;54.87;99993.13;4879753;28;112379;-43
2023/07/24 04:02:10;;;;;;;2.20;1.30;;;22.00;99.90;;;22.13;55.67;99975.06;4892234;28;105158;-44
2023/07/24 04:04:37;;;;;;;2.30;1.33;;;22.00;99.90;;;22.16;58.85;99980.16;4906700;28;97600;-45
2023/07/24 04:07:03;;;;;;;0.90;0.57;;;22.00;99.90;;;22.15;55.44;99983.81;4891316;28;97546;-43
2023/07/24 04:09:29;;;;;;;0.83;0.70;;;22.00;99.90;;;22.15;56.17;99973.09;4897096;28;98017;-42
2023/07/24 04:11:55;;;;;;;0.80;0.50;;;22.00;99.90;;;22.15;55.14;99972.25;4901836;28;97239;-44
2023/07/24 04:14:21;;;;;;;1.60;1.17;;;22.00;99.90;;;22.13;59.09;99972.38;4894068;28;97230;-42
2023/07/24 04:16:47;;;;;;;3.53;0.67;;;22.00;99.90;;;22.11;61.22;99974.34;4893973;28;97239;-44
2023/07/24 04:19:13;;;;;;;2.47;0.83;;;22.00;99.90;;;22.06;59.32;99965.88;4895969;28;97986;-42
2023/07/24 04:21:38;;;;;;;2.50;1.30;;;21.90;99.90;;;22.05;59.67;99971.38;4902776;28;108526;-43
2023/07/24 04:24:04;;;;;;;1.00;0.60;;;21.90;99.90;;;22.04;55.24;99970.53;4903651;28;97572;-45
2023/07/24 04:26:30;;;;;;;2.00;0.97;;;21.90;99.90;;;22.07;57.46;99967.56;4901334;28;97317;-44
2023/07/24 04:28:56;;;;;;;1.10;0.80;;;21.90;99.90;;;22.07;56.66;99970.25;4889099;28;97226;-46
2023/07/24 04:31:22;;;;;;;3.70;1.83;;;21.90;99.90;;;22.05;65.64;99974.94;4896330;28;98401;-43
2023/07/24 04:33:47;;;;;;;3.47;1.20;;;21.90;99.90;;;22.01;64.06;99967.28;4903266;28;104559;-43
2023/07/24 04:36:13;;;;;;;0.80;0.60;;;21.80;99.90;;;21.97;60.78;99969.38;4892487;28;105778;-43
2023/07/24 04:38:39;;;;;;;6.33;1.23;;;21.80;99.90;;;21.94;64.18;99980.44;4909413;28;97975;-44
2023/07/24 04:41:04;;;;;;;4.57;1.43;;;21.70;99.90;;;21.91;62.89;99972.66;4899252;28;108808;-42
2023/07/24 04:43:30;;;;;;;4.57;1.40;;;21.70;99.90;;;21.92;65.70;99977.03;4889476;28;97286;-42
2023/07/24 04:45:56;;;;;;;1.83;0.80;;;21.70;99.90;;;21.89;58.18;99971.97;4896195;28;97303;-42
2023/07/24 04:48:22;;;;;;;1.60;0.93;;;21.70;99.90;;;21.89;60.04;99977.34;4906506;28;108456;-42
2023/07/24 04:50:56;;;;;;;2.23;1.43;;;21.70;99.90;;;21.90;66.67;99981.72;4884892;28;97773;-44
2023/07/24 04:53:23;;;;;;;2.93;1.67;;;21.70;99.90;;;21.88;65.48;99989.06;4901468;28;97048;-44
2023/07/24 04:55:48;;;;;;;2.80;1.30;;;21.70;99.90;;;21.85;61.16;99992.88;4918855;28;97299;-42
2023/07/24 04:58:14;;;;;;;1.70;1.03;;;21.60;99.90;;;21.80;59.51;99994.28;4891132;28;112782;-44
2023/07/24 05:00:40;;;;;;;1.97;1.33;;;21.60;99.90;;;21.81;62.38;99986.09;4895093;28;98474;-47
2023/07/24 05:03:11;;;;;;;3.00;1.50;;;21.60;99.90;;;21.82;63.04;99986.94;4895839;28;99769;-43
2023/07/24 05:05:39;;;;;;;2.53;1.20;;;21.60;99.90;;;21.82;64.07;99989.63;4894318;28;97366;-43
2023/07/24 05:08:05;;;;;;;1.30;1.00;;;21.60;99.90;;;21.80;58.02;99994.28;4895640;28;102942;-45
2023/07/24 05:10:38;;;;;;;2.47;1.10;;;21.60;99.90;;;21.79;60.43;99993.44;4891922;28;97210;-42
2023/07/24 05:13:04;;;;;;;2.57;1.00;;;21.60;99.90;;;21.77;63.99;99990.06;4891651;28;97747;-42
2023/07/24 05:15:29;;;;;;;3.17;1.20;;;21.60;99.90;;;21.76;65.14;99992.88;4897337;28;97631;-43
2023/07/24 05:17:55;;;;;;;2.13;1.37;;;21.60;99.90;;;21.74;66.08;100000.22;4896092;28;112646;-42
2023/07/24 05:20:21;;;;;;;2.23;1.33;;;21.50;99.90;;;21.70;58.85;99999.69;4889313;28;114572;-43
2023/07/24 05:22:47;;;;;;;1.17;1.03;;;21.50;99.90;;;21.70;60.82;100002.38;4892309;28;97067;-43
2023/07/24 05:25:13;;;;;;;3.87;1.47;;;21.50;99.90;;;21.71;61.56;100003.22;4899992;28;97460;-43
2023/07/24 05:27:38;;;;;;;2.40;1.30;;;21.50;99.90;;;21.78;61.78;100001.63;4900394;28;101420;-42
2023/07/24 05:30:06;;;;;;;1.40;1.23;;;21.60;99.90;;;21.75;57.97;100004.63;4896014;28;102251;-44
2023/07/24 05:32:32;;;;;;;2.23;1.53;;;21.60;99.90;;;21.79;66.52;100006.88;4897990;28;97496;-43
2023/07/24 05:34:57;;;;;;;5.00;1.53;;;21.60;99.90;;;21.83;59.58;100004.72;4896738;28;97226;-42
2023/07/24 05:37:23;;;;;;;1.23;1.03;;;21.60;99.90;;;21.82;61.70;100008.41;4897195;28;111094;-42
2023/07/24 05:39:49;;;;;;;2.53;1.37;;;21.70;99.90;;;21.83;66.18;100018.16;4888850;28;111919;-44
2023/07/24 05:42:14;;;;;;;2.73;1.10;;;21.70;99.90;;;21.81;57.42;100020.13;4882847;28;97223;-42
2023/07/24 05:44:40;;;;;;;2.60;1.23;;;21.60;99.90;;;21.86;63.24;100009.84;4889185;28;96981;-46
2023/07/24 05:47:06;;;;;;;1.63;1.00;;;21.70;99.90;;;21.84;60.56;100001.91;4895295;28;97493;-45
2023/07/24 05:49:32;;;;;;;5.57;1.27;;;21.70;99.90;;;21.85;62.60;100018.88;4894262;28;97426;-42
2023/07/24 05:51:58;;;;;;;1.90;1.17;;;21.70;99.90;;;21.87;62.36;100016.91;4888257;28;97505;-44
2023/07/24 05:54:23;;;;;;;5.43;1.93;;;21.70;99.90;;;21.88;66.04;100018.59;4901795;28;97561;-42
2023/07/24 05:56:49;;;;;;;3.17;1.57;;;21.70;99.90;;;21.83;66.04;100020.84;4899793;28;97931;-48
2023/07/24 05:59:15;;;;;;;3.17;1.43;;;21.70;99.90;;;21.80;62.07;100031.88;4916891;28;114300;-43
2023/07/24 06:01:41;;;;;;;2.57;1.57;;;21.60;99.90;;;21.82;64.45;100033.41;4905541;28;104014;-42
2023/07/24 06:04:07;;;;;;;5.60;2.00;;;21.60;99.90;;;21.80;65.11;100043.44;4891558;28;106192;-43
2023/07/24 06:06:33;;;;;;;3.30;1.53;;;21.60;99.90;;;21.83;64.30;100039.63;4898717;28;97328;-42
2023/07/24 06:08:59;;;;;;;2.93;1.20;;;21.70;99.90;;;21.84;59.25;100028.75;4891131;28;97529;-43
2023/07/24 06:11:26;;;;;;;2.13;1.50;;;21.70;99.90;;;21.83;62.20;100031.56;4888062;28;99988;-42
2023/07/24 06:13:52;;;;;;;5.13;1.90;;;21.70;99.90;;;21.83;63.65;100029.75;4890317;28;96762;-42
2023/07/24 06:16:18;;;;;;;3.40;1.43;;;21.70;99.90;;;21.84;64.34;100038.63;4890719;28;97678;-42
2023/07/24 06:18:44;;;;;;;2.63;1.67;;;21.70;99.90;;;21.82;63.71;100038.78;4890281;28;105339;-44
2023/07/24 06:21:10;;;;;;;3.73;1.50;;;21.70;99.90;;;21.82;64.18;100029.88;4878075;28;102665;-47
2023/07/24 06:23:36;;;;;;;1.97;1.30;;;21.70;99.90;;;21.80;60.82;100026.50;4887127;28;97458;-42
2023/07/24 06:26:02;;;;;;;2.63;1.40;;;21.60;99.90;;;21.83;59.46;100036.94;4881762;28;99308;-46
2023/07/24 06:28:28;;;;;;;3.00;1.67;;;21.70;99.90;;;21.81;64.47;100038.94;4945734;22;101069;-44
2023/07/24 06:30:54;;;;;;;2.87;1.70;;;21.70;99.90;;;21.88;62.67;100040.06;4940372;28;97061;-43
2023/07/24 06:33:22;;;;;;;1.90;1.17;;;21.70;99.90;;;21.87;61.20;100051.81;4926346;28;97332;-43
2023/07/24 06:35:50;;;;;;;3.43;1.70;;;21.80;99.90;;;21.86;60.21;100036.69;4920121;28;97185;-46
2023/07/24 06:38:17;;;;;;;2.07;1.47;;;21.80;99.90;;;21.90;61.83;100036.25;4929097;28;97036;-43
2023/07/24 06:40:42;;;;;;;1.67;1.10;;;21.80;99.90;;;21.92;62.53;100030.75;4917916;28;96997;-43
2023/07/24 06:43:08;;;;;;;1.60;1.10;;;21.80;99.90;;;21.92;62.90;100020.84;4919039;28;99198;-42
2023/07/24 06:45:34;;;;;;;3.00;1.33;;;21.80;99.90;;;21.93;61.55;100016.31;4922603;28;98690;-43
2023/07/24 06:48:00;;;;;;;2.03;1.20;;;21.80;99.90;;;21.95;59.15;100017.03;4919521;28;117808;-44
2023/07/24 06:50:25;;;;;;;2.67;1.40;;;21.90;99.90;;;21.99;59.78;100031.88;4911200;28;97416;-44
2023/07/24 06:52:53;;;;;;;2.40;1.10;;;21.90;99.90;;;22.01;60.25;100029.88;4921379;28;102865;-42
2023/07/24 06:55:20;;;;;;;10.20;1.60;;;22.00;99.90;;;22.00;60.04;100030.88;4928424;28;98007;-43
2023/07/24 06:57:45;;;;;;;2.70;1.50;;;21.90;99.90;;;22.02;59.64;100031.59;4917048;28;97212;-42
2023/07/24 07:00:12;;;;;;;3.57;1.17;;;21.90;99.90;;;22.01;59.19;100027.22;4896669;28;97168;-42
2023/07/24 07:02:38;;;;;;;3.07;1.37;;;21.90;99.90;;;22.04;60.00;100026.91;4889685;28;98364;-42
2023/07/24 07:05:05;;;;;;;2.17;1.50;;;22.00;99.90;;;22.05;60.14;100012.53;4884284;28;97782;-46
2023/07/24 07:07:32;;;;;;;1.73;1.10;;;21.90;99.90;;;22.07;60.43;100007.00;4885350;28;99851;-43
2023/07/24 07:09:57;;;;;;;3.00;1.90;;;21.90;99.90;;;22.06;61.24;100014.22;4888697;28;98822;-43
2023/07/24 07:12:23;;;;;;;1.50;1.00;;;22.00;99.90;;;22.05;60.84;100015.22;4888755;28;97557;-44
2023/07/24 07:14:49;;;;;;;2.03;1.23;;;22.00;99.90;;;22.08;60.93;100020.28;4890985;28;97197;-45
2023/07/24 07:17:15;;;;;;;3.27;1.40;;;22.00;99.90;;;22.10;58.83;100007.56;4888551;28;98980;-44
2023/07/24 07:19:41;;;;;;;2.30;1.37;;;22.00;99.90;;;22.10;59.49;100012.94;4883643;28;97684;-44
2023/07/24 07:22:07;;;;;;;1.47;0.80;;;22.00;99.90;;;22.15;58.88;100016.06;4890695;28;98318;-43
2023/07/24 07:24:32;;;;;;;2.73;1.60;;;22.10;99.90;;;22.17;61.35;100023.97;4888361;28;97327;-42
2023/07/24 07:26:58;;;;;;;2.70;1.03;;;22.10;99.90;;;22.09;59.82;100024.66;4891758;28;97605;-43
2023/07/24 07:29:24;;;;;;;2.33;1.30;;;22.10;99.90;;;22.09;58.30;100021.97;4886814;28;108566;-46
2023/07/24 07:31:50;;;;;;;4.73;1.10;;;22.00;99.90;;;22.11;57.40;100019.16;4895420;28;97326;-44
2023/07/24 07:34:16;;;;;;;1.50;1.00;;;22.10;99.90;;;22.10;58.59;100028.19;4891364;28;99351;-43
2023/07/24 07:36:41;;;;;;;2.53;1.27;;;22.10;99.90;;;22.11;57.69;100013.78;4886787;28;98367;-42
2023/07/24 07:39:07;;;;;;;1.77;0.80;;;22.10;99.90;;;22.09;58.17;100021.97;4894731;28;98015;-47
2023/07/24 07:41:33;;;;;;;1.50;0.90;;;22.00;99.90;;;22.10;58.29;100022.81;4889081;28;97058;-44
2023/07/24 07:43:59;;;;;;;3.40;1.53;;;22.00;99.90;;;22.09;58.32;100016.59;4879059;28;97783;-46
2023/07/24 07:46:25;;;;;;;2.03;1.00;;;22.00;99.90;;;22.09;58.33;100016.59;4892166;28;97784;-44
2023/07/24 07:48:51;;;;;;;1.90;1.30;;;22.00;99.90;;;22.13;58.32;100006.41;4893112;28;97336;-42
2023/07/24 07:51:17;;;;;;;4.37;1.30;;;22.00;99.90;;;22.14;58.21;100003.63;4889603;28;116512;-44
2023/07/24 07:53:43;;;;;;;3.07;1.33;;;22.10;99.90;;;22.15;57.70;99994.56;4888956;28;98692;-42
2023/07/24 07:56:08;;;;;;;2.20;1.40;;;22.10;99.90;;;22.14;57.42;99992.03;4890876;28;97259;-42
2023/07/24 07:58:34;;;;;;;2.27;1.17;;;22.10;99.90;;;22.17;58.04;99992.56;4889578;28;97295;-42
2023/07/24 08:01:05;;;;;;;1.60;1.20;;;22.10;99.90;;;22.22;58.62;99994.81;4890634;28;97353;-42
2023/07/24 08:03:30;;;;;;;1.90;1.20;;;22.20;99.90;;;22.18;56.85;99991.59;4886672;28;99471;-43
2023/07/24 08:06:00;;;;;;;1.27;0.93;;;22.20;99.90;;;22.17;56.35;99991.72;4889985;28;104615;-46
2023/07/24 08:08:25;;;;;;;2.77;1.30;;;22.20;99.90;;;22.20;57.21;99975.31;4883963;28;97327;-42
2023/07/24 08:10:51;;;;;;;1.90;1.00;;;22.20;99.90;;;22.20;57.28;99976.16;4885898;28;97879;-42
2023/07/24 08:13:17;;;;;;;1.17;0.83;;;22.20;99.90;;;22.21;57.59;99974.31;4874617;28;100292;-45
2023/07/24 08:15:43;;;;;;;4.33;1.47;;;22.20;99.90;;;22.20;56.72;99981.53;4879644;28;97339;-46
2023/07/24 08:18:09;;;;;;;1.87;1.10;;;22.20;99.90;;;22.18;57.03;99996.97;4887818;28;100505;-42
2023/07/24 08:20:37;;;;;;;3.67;1.40;;;22.20;99.90;;;22.20;56.70;99986.91;4884093;28;97062;-46
2023/07/24 08:23:03;;;;;;;2.23;1.43;;;22.20;99.90;;;22.25;57.37;99990.00;4882963;28;98246;-45
2023/07/24 08:25:28;;;;;;;3.07;1.43;;;22.20;99.90;;;22.20;57.63;99992.28;4891153;28;98855;-45
2023/07/24 08:27:54;;;;;;;2.90;1.40;;;22.20;99.90;;;22.20;56.67;99986.06;4888056;28;99076;-43
2023/07/24 08:30:20;;;;;;;2.43;1.23;;;22.20;99.90;;;22.22;57.62;99990.28;4889796;28;97302;-43
2023/07/24 08:32:46;;;;;;;2.47;1.30;;;22.20;99.90;;;22.27;57.00;99993.38;4883814;28;106196;-44
2023/07/24 08:35:12;;;;;;;4.33;1.47;;;22.20;99.90;;;22.27;56.85;99988.00;4893011;28;125710;-44
2023/07/24 08:37:38;;;;;;;2.03;1.40;;;22.30;99.90;;;22.29;57.94;99985.22;4890442;28;97495;-43
2023/07/24 08:40:05;;;;;;;5.13;1.20;;;22.30;99.90;;;22.31;57.94;99982.38;4887734;28;113779;-43
2023/07/24 08:42:32;;;;;;;5.03;1.47;;;22.30;99.90;;;22.32;57.70;99979.53;4889675;28;99364;-42
2023/07/24 08:44:58;;;;;;;2.03;1.17;;;22.30;99.90;;;22.35;56.96;99975.69;4884486;28;97739;-43
2023/07/24 08:47:24;;;;;;;1.83;1.53;;;22.30;99.90;;;22.33;56.65;99969.63;4893016;28;98362;-44
2023/07/24 08:49:53;;;;;;;1.77;1.10;;;22.30;99.90;;;22.36;57.29;99969.34;4891677;28;98337;-46
2023/07/24 08:52:19;;;;;;;2.80;1.03;;;22.30;99.90;;;22.37;57.31;99957.59;4894717;28;98615;-45
2023/07/24 08:54:45;;;;;;;3.07;1.27;;;22.30;99.90;;;22.39;57.16;99953.75;4888795;28;112829;-43
2023/07/24 08:57:12;;;;;;;2.27;1.23;;;22.30;99.90;;;22.40;58.11;99954.59;4890511;28;98656;-54
2023/07/24 08:59:38;;;;;;;2.73;1.30;;;22.30;99.90;;;22.42;56.42;99952.63;4894273;28;98906;-48
2023/07/24 09:02:05;;;;;;;2.10;1.30;;;22.40;99.90;;;22.45;57.14;99953.19;4892831;28;98182;-43
2023/07/24 09:04:31;;;;;;;1.90;1.20;;;22.40;99.90;;;22.43;56.54;99948.97;4899693;28;98871;-43
2023/07/24 09:06:58;;;;;;;2.33;1.10;;;22.40;99.90;;;22.44;56.69;99950.66;4892765;28;97396;-42
2023/07/24 09:09:29;;;;;;;3.60;1.33;;;22.40;99.90;;;22.43;57.58;99959.72;4887394;28;97376;-43
2023/07/24 09:11:55;;;;;;;2.17;1.23;;;22.40;99.90;;;22.42;56.49;99969.63;4892704;28;98210;-47
2023/07/24 09:14:27;;;;;;;4.67;1.30;;;22.30;99.90;;;22.41;57.13;99977.78;4887825;28;105253;-44
2023/07/24 09:17:11;;;;;;;2.10;1.10;;;22.30;99.90;;;22.36;58.00;99974.72;4926040;28;97474;-42
2023/07/24 09:19:37;;;;;;;4.37;1.40;;;22.30;99.90;;;22.38;58.24;99972.72;4922997;28;97099;-43
2023/07/24 09:22:15;;;;;;;3.27;1.20;;;22.30;99.90;;;22.39;58.70;99975.25;4920227;28;97098;-45
2023/07/24 09:24:55;;;;;;;2.13;1.20;;;22.30;99.90;;;22.37;57.70;99981.78;4917599;28;101886;-43
2023/07/24 09:27:28;;;;;;;3.23;1.20;;;22.30;99.90;;;22.36;59.07;99980.09;4914792;28;99484;-46
2023/07/24 09:29:56;;;;;;;2.40;1.40;;;22.30;99.90;;;22.36;57.95;99974.72;4929001;28;97197;-44
2023/07/24 09:32:27;;;;;;;2.03;1.33;;;22.30;99.90;;;22.38;57.90;99967.34;4925664;28;97877;-42
2023/07/24 09:34:56;;;;;;;3.00;1.00;;;22.30;99.90;;;22.33;56.65;99964.25;4924780;28;97725;-42
2023/07/24 09:37:25;;;;;;;3.00;1.00;;;22.30;99.90;;;22.35;56.77;99956.91;4924989;28;97169;-44
2023/07/24 09:39:50;;;;;;;2.50;1.40;;;22.30;99.90;;;22.36;56.67;99942.47;4909422;28;97166;-42
2023/07/24 09:42:16;;;;;;;3.10;1.10;;;22.30;99.90;;;22.38;56.89;99935.94;4925422;28;122350;-47
2023/07/24 09:44:42;;;;;;;1.40;0.97;;;22.30;99.90;;;22.41;56.39;99927.59;4915496;28;100716;-43
2023/07/24 09:47:08;;;;;;;2.33;1.33;;;22.40;99.90;;;22.42;56.23;99925.75;4922104;28;97517;-43
2023/07/24 09:49:34;;;;;;;2.43;1.20;;;22.40;99.90;;;22.41;56.28;99929.44;4925954;28;100982;-42
2023/07/24 09:52:03;;;;;;;2.00;1.00;;;22.40;99.90;;;22.40;55.98;99914.31;4919930;28;109197;-42
2023/07/24 09:54:41;;;;;;;1.80;1.03;;;22.40;99.90;;;22.42;55.72;99915.00;4922745;28;97151;-42
2023/07/24 09:57:08;;;;;;;2.30;1.27;;;22.40;99.90;;;22.37;55.33;99901.19;4922273;28;97601;-42
2023/07/24 09:59:35;;;;;;;2.03;1.30;;;22.40;99.90;;;22.41;55.30;99905.25;4923626;28;96969;-43
2023/07/24 10:02:01;;;;;;;1.50;1.37;;;22.40;99.90;;;22.45;56.59;99903.97;4922440;28;105869;-42
2023/07/24 10:04:27;;;;;;;2.20;1.03;;;22.40;99.90;;;22.45;55.74;99906.66;4923944;28;97081;-44
2023/07/24 10:06:53;;;;;;;2.27;1.30;;;22.40;99.90;;;22.45;55.84;99903.97;4918408;28;105245;-43
2023/07/24 10:09:22;;;;;;;1.90;1.00;;;22.40;99.90;;;22.48;55.72;99899.16;4916647;28;97083;-43
2023/07/24 10:11:48;;;;;;;2.07;1.03;;;22.40;99.90;;;22.50;55.96;99897.16;4928525;28;98531;-46